Terminal Aerodrome Forecast
Issued by NWS

Home | Current Version | Previous Version | Text Only | Print | Product List | Glossary On
Versions: 1 2 3 4 5 6 7 8 9 10 11 12 13 14 15 16 17 18 19 20 21 22 23 24 25
000
FTUS45 KBOI 302327
TAFMYL
TAF
KMYL 302327Z 3100/3124 17011KT P6SM SCT200
     FM310300 VRB05KT P6SM OVC150
     FM311700 VRB05KT P6SM VCSH BKN030 OVC070
     FM312100 27010G20KT P6SM -SHRA OVC025=

USA.gov is the U.S. government's official web portal to all federal, state and local government web resources and services.